sensor_id;sensor_type;location;lat;lon;timestamp;temperature;humidity
78463;SHT31;67756;51.982;5.648;2024-03-02T00:01:26;11.2;55.7
78463;SHT31;67756;51.982;5.648;2024-03-02T00:03:55;11.2;55.4
78463;SHT31;67756;51.982;5.648;2024-03-02T00:06:24;11.2;55.8
78463;SHT31;67756;51.982;5.648;2024-03-02T00:08:59;11.2;55.8
78463;SHT31;67756;51.982;5.648;2024-03-02T00:11:28;11.1;56.0
78463;SHT31;67756;51.982;5.648;2024-03-02T00:13:59;11.1;56.0
78463;SHT31;67756;51.982;5.648;2024-03-02T00:16:30;11.1;56.3
78463;SHT31;67756;51.982;5.648;2024-03-02T00:19:03;11.2;55.9
78463;SHT31;67756;51.982;5.648;2024-03-02T00:21:35;11.2;56.2
78463;SHT31;67756;51.982;5.648;2024-03-02T00:24:17;11.2;55.9
78463;SHT31;67756;51.982;5.648;2024-03-02T00:26:48;11.3;56.2
78463;SHT31;67756;51.982;5.648;2024-03-02T00:29:17;11.3;56.3
78463;SHT31;67756;51.982;5.648;2024-03-02T00:31:47;11.3;56.0
78463;SHT31;67756;51.982;5.648;2024-03-02T00:34:17;11.3;56.6
78463;SHT31;67756;51.982;5.648;2024-03-02T00:36:46;11.4;57.2
78463;SHT31;67756;51.982;5.648;2024-03-02T00:39:15;11.4;57.1
78463;SHT31;67756;51.982;5.648;2024-03-02T00:41:44;11.3;57.0
78463;SHT31;67756;51.982;5.648;2024-03-02T00:44:15;11.3;57.2
78463;SHT31;67756;51.982;5.648;2024-03-02T00:46:44;11.2;57.2
78463;SHT31;67756;51.982;5.648;2024-03-02T00:49:19;11.2;56.7
78463;SHT31;67756;51.982;5.648;2024-03-02T00:51:51;11.2;56.7
78463;SHT31;67756;51.982;5.648;2024-03-02T00:54:22;11.1;57.2
78463;SHT31;67756;51.982;5.648;2024-03-02T00:56:52;11.1;56.9
78463;SHT31;67756;51.982;5.648;2024-03-02T00:59:22;11.1;57.3
78463;SHT31;67756;51.982;5.648;2024-03-02T01:01:51;11.0;58.1
78463;SHT31;67756;51.982;5.648;2024-03-02T01:04:20;11.0;59.9
78463;SHT31;67756;51.982;5.648;2024-03-02T01:06:49;10.9;60.2
78463;SHT31;67756;51.982;5.648;2024-03-02T01:09:17;10.8;60.7
78463;SHT31;67756;51.982;5.648;2024-03-02T01:11:46;10.8;61.3
78463;SHT31;67756;51.982;5.648;2024-03-02T01:14:14;10.7;61.7
78463;SHT31;67756;51.982;5.648;2024-03-02T01:16:43;10.6;62.3
78463;SHT31;67756;51.982;5.648;2024-03-02T01:19:12;10.6;62.4
78463;SHT31;67756;51.982;5.648;2024-03-02T01:21:41;10.5;62.7
78463;SHT31;67756;51.982;5.648;2024-03-02T01:24:09;10.5;63.3
78463;SHT31;67756;51.982;5.648;2024-03-02T01:26:39;10.5;63.4
78463;SHT31;67756;51.982;5.648;2024-03-02T01:29:08;10.4;63.8
78463;SHT31;67756;51.982;5.648;2024-03-02T01:31:36;10.4;64.2
78463;SHT31;67756;51.982;5.648;2024-03-02T01:34:09;10.4;64.8
78463;SHT31;67756;51.982;5.648;2024-03-02T01:36:39;10.4;65.2
78463;SHT31;67756;51.982;5.648;2024-03-02T01:39:08;10.5;64.6
78463;SHT31;67756;51.982;5.648;2024-03-02T01:41:37;10.5;64.3
78463;SHT31;67756;51.982;5.648;2024-03-02T01:44:06;10.5;64.2
78463;SHT31;67756;51.982;5.648;2024-03-02T01:46:36;10.5;64.8
78463;SHT31;67756;51.982;5.648;2024-03-02T01:49:04;10.6;64.1
78463;SHT31;67756;51.982;5.648;2024-03-02T01:51:33;10.6;63.6
78463;SHT31;67756;51.982;5.648;2024-03-02T01:54:01;10.6;63.8
78463;SHT31;67756;51.982;5.648;2024-03-02T01:56:30;10.6;63.3
78463;SHT31;67756;51.982;5.648;2024-03-02T01:58:59;10.6;63.2
78463;SHT31;67756;51.982;5.648;2024-03-02T02:01:28;10.6;63.3
78463;SHT31;67756;51.982;5.648;2024-03-02T02:03:57;10.5;63.6
78463;SHT31;67756;51.982;5.648;2024-03-02T02:06:27;10.5;64.0
78463;SHT31;67756;51.982;5.648;2024-03-02T02:08:56;10.4;64.2
78463;SHT31;67756;51.982;5.648;2024-03-02T02:11:24;10.4;64.3
78463;SHT31;67756;51.982;5.648;2024-03-02T02:13:53;10.4;64.4
78463;SHT31;67756;51.982;5.648;2024-03-02T02:16:24;10.4;64.4
78463;SHT31;67756;51.982;5.648;2024-03-02T02:18:52;10.3;64.6
78463;SHT31;67756;51.982;5.648;2024-03-02T02:21:24;10.3;64.6
78463;SHT31;67756;51.982;5.648;2024-03-02T02:23:54;10.3;65.1
78463;SHT31;67756;51.982;5.648;2024-03-02T02:26:22;10.2;65.0
78463;SHT31;67756;51.982;5.648;2024-03-02T02:28:51;10.2;64.6
78463;SHT31;67756;51.982;5.648;2024-03-02T02:31:20;10.2;64.9
78463;SHT31;67756;51.982;5.648;2024-03-02T02:33:48;10.2;65.2
78463;SHT31;67756;51.982;5.648;2024-03-02T02:36:17;10.2;66.0
78463;SHT31;67756;51.982;5.648;2024-03-02T02:38:49;10.1;67.2
78463;SHT31;67756;51.982;5.648;2024-03-02T02:41:18;10.1;67.6
78463;SHT31;67756;51.982;5.648;2024-03-02T02:43:46;10.0;68.0
78463;SHT31;67756;51.982;5.648;2024-03-02T02:46:15;9.9;68.4
78463;SHT31;67756;51.982;5.648;2024-03-02T02:48:43;9.8;69.2
78463;SHT31;67756;51.982;5.648;2024-03-02T02:51:12;9.8;69.2
78463;SHT31;67756;51.982;5.648;2024-03-02T02:53:40;9.7;70.0
78463;SHT31;67756;51.982;5.648;2024-03-02T02:56:10;9.6;70.8
78463;SHT31;67756;51.982;5.648;2024-03-02T02:58:40;9.6;71.1
78463;SHT31;67756;51.982;5.648;2024-03-02T03:01:09;9.5;71.3
78463;SHT31;67756;51.982;5.648;2024-03-02T03:03:38;9.5;71.3
78463;SHT31;67756;51.982;5.648;2024-03-02T03:06:07;9.4;71.8
78463;SHT31;67756;51.982;5.648;2024-03-02T03:08:36;9.4;71.2
78463;SHT31;67756;51.982;5.648;2024-03-02T03:11:05;9.4;71.7
78463;SHT31;67756;51.982;5.648;2024-03-02T03:13:34;9.4;71.8
78463;SHT31;67756;51.982;5.648;2024-03-02T03:16:03;9.3;71.2
78463;SHT31;67756;51.982;5.648;2024-03-02T03:18:32;9.2;70.6
78463;SHT31;67756;51.982;5.648;2024-03-02T03:21:01;9.2;71.7
78463;SHT31;67756;51.982;5.648;2024-03-02T03:23:29;9.1;72.4
78463;SHT31;67756;51.982;5.648;2024-03-02T03:25:58;9.1;71.7
78463;SHT31;67756;51.982;5.648;2024-03-02T03:28:27;9.0;72.5
78463;SHT31;67756;51.982;5.648;2024-03-02T03:30:55;8.9;72.2
78463;SHT31;67756;51.982;5.648;2024-03-02T03:33:24;8.9;72.2
78463;SHT31;67756;51.982;5.648;2024-03-02T03:35:52;8.9;72.7
78463;SHT31;67756;51.982;5.648;2024-03-02T03:38:21;8.9;72.4
78463;SHT31;67756;51.982;5.648;2024-03-02T03:40:50;8.8;72.3
78463;SHT31;67756;51.982;5.648;2024-03-02T03:43:18;8.8;72.8
78463;SHT31;67756;51.982;5.648;2024-03-02T03:45:47;8.9;72.3
78463;SHT31;67756;51.982;5.648;2024-03-02T03:48:15;8.9;72.2
78463;SHT31;67756;51.982;5.648;2024-03-02T03:50:48;9.0;71.9
78463;SHT31;67756;51.982;5.648;2024-03-02T03:53:19;9.1;70.8
78463;SHT31;67756;51.982;5.648;2024-03-02T03:55:48;9.1;70.2
78463;SHT31;67756;51.982;5.648;2024-03-02T03:58:17;9.2;70.0
78463;SHT31;67756;51.982;5.648;2024-03-02T04:00:47;9.3;69.8
78463;SHT31;67756;51.982;5.648;2024-03-02T04:03:16;9.4;69.3
78463;SHT31;67756;51.982;5.648;2024-03-02T04:05:45;9.4;69.3
78463;SHT31;67756;51.982;5.648;2024-03-02T04:08:13;9.4;68.9
78463;SHT31;67756;51.982;5.648;2024-03-02T04:10:42;9.4;68.8
78463;SHT31;67756;51.982;5.648;2024-03-02T04:13:10;9.5;68.4
78463;SHT31;67756;51.982;5.648;2024-03-02T04:15:39;9.5;68.4
78463;SHT31;67756;51.982;5.648;2024-03-02T04:18:08;9.4;68.2
78463;SHT31;67756;51.982;5.648;2024-03-02T04:20:38;9.4;67.8
78463;SHT31;67756;51.982;5.648;2024-03-02T04:23:06;9.4;67.8
78463;SHT31;67756;51.982;5.648;2024-03-02T04:25:35;9.4;67.6
78463;SHT31;67756;51.982;5.648;2024-03-02T04:28:04;9.4;67.1
78463;SHT31;67756;51.982;5.648;2024-03-02T04:30:33;9.3;67.4
78463;SHT31;67756;51.982;5.648;2024-03-02T04:33:01;9.3;67.6
78463;SHT31;67756;51.982;5.648;2024-03-02T04:35:32;9.3;67.7
78463;SHT31;67756;51.982;5.648;2024-03-02T04:38:00;9.3;67.2
78463;SHT31;67756;51.982;5.648;2024-03-02T04:40:29;9.3;67.2
78463;SHT31;67756;51.982;5.648;2024-03-02T04:42:58;9.3;67.3
78463;SHT31;67756;51.982;5.648;2024-03-02T04:45:27;9.3;66.5
78463;SHT31;67756;51.982;5.648;2024-03-02T04:47:56;9.4;67.1
78463;SHT31;67756;51.982;5.648;2024-03-02T04:50:24;9.4;67.0
78463;SHT31;67756;51.982;5.648;2024-03-02T04:52:53;9.6;66.5
78463;SHT31;67756;51.982;5.648;2024-03-02T04:55:21;9.7;65.9
78463;SHT31;67756;51.982;5.648;2024-03-02T04:58:11;9.7;64.9
78463;SHT31;67756;51.982;5.648;2024-03-02T05:00:39;9.7;65.2
78463;SHT31;67756;51.982;5.648;2024-03-02T05:03:09;9.7;65.0
78463;SHT31;67756;51.982;5.648;2024-03-02T05:05:37;9.7;65.1
78463;SHT31;67756;51.982;5.648;2024-03-02T05:08:06;9.7;65.2
78463;SHT31;67756;51.982;5.648;2024-03-02T05:10:35;9.7;65.2
78463;SHT31;67756;51.982;5.648;2024-03-02T05:13:04;9.7;65.2
78463;SHT31;67756;51.982;5.648;2024-03-02T05:15:33;9.7;65.4
78463;SHT31;67756;51.982;5.648;2024-03-02T05:18:01;9.6;65.7
78463;SHT31;67756;51.982;5.648;2024-03-02T05:20:31;9.6;65.7
78463;SHT31;67756;51.982;5.648;2024-03-02T05:23:00;9.6;66.0
78463;SHT31;67756;51.982;5.648;2024-03-02T05:25:28;9.5;66.1
78463;SHT31;67756;51.982;5.648;2024-03-02T05:27:58;9.5;66.5
78463;SHT31;67756;51.982;5.648;2024-03-02T05:30:27;9.5;66.5
78463;SHT31;67756;51.982;5.648;2024-03-02T05:32:55;9.4;67.1
78463;SHT31;67756;51.982;5.648;2024-03-02T05:35:24;9.4;67.2
78463;SHT31;67756;51.982;5.648;2024-03-02T05:37:53;9.4;67.0
78463;SHT31;67756;51.982;5.648;2024-03-02T05:40:21;9.4;67.1
78463;SHT31;67756;51.982;5.648;2024-03-02T05:42:50;9.4;67.2
78463;SHT31;67756;51.982;5.648;2024-03-02T05:45:18;9.4;67.3
78463;SHT31;67756;51.982;5.648;2024-03-02T05:47:47;9.4;67.3
78463;SHT31;67756;51.982;5.648;2024-03-02T05:50:15;9.5;67.2
78463;SHT31;67756;51.982;5.648;2024-03-02T05:52:46;9.5;66.6
78463;SHT31;67756;51.982;5.648;2024-03-02T05:55:15;9.5;65.7
78463;SHT31;67756;51.982;5.648;2024-03-02T05:57:44;9.5;66.2
78463;SHT31;67756;51.982;5.648;2024-03-02T06:00:24;9.5;66.5
78463;SHT31;67756;51.982;5.648;2024-03-02T06:02:53;9.6;66.3
78463;SHT31;67756;51.982;5.648;2024-03-02T06:05:23;9.7;65.0
78463;SHT31;67756;51.982;5.648;2024-03-02T06:07:51;9.7;64.4
78463;SHT31;67756;51.982;5.648;2024-03-02T06:10:20;9.7;64.4
78463;SHT31;67756;51.982;5.648;2024-03-02T06:12:51;9.8;64.3
78463;SHT31;67756;51.982;5.648;2024-03-02T06:15:20;9.8;63.7
78463;SHT31;67756;51.982;5.648;2024-03-02T06:17:48;9.8;63.0
78463;SHT31;67756;51.982;5.648;2024-03-02T06:20:19;9.8;63.7
78463;SHT31;67756;51.982;5.648;2024-03-02T06:22:48;9.7;63.4
78463;SHT31;67756;51.982;5.648;2024-03-02T06:25:16;9.7;64.0
78463;SHT31;67756;51.982;5.648;2024-03-02T06:27:45;9.6;64.3
78463;SHT31;67756;51.982;5.648;2024-03-02T06:30:14;9.6;64.0
78463;SHT31;67756;51.982;5.648;2024-03-02T06:32:43;9.5;64.0
78463;SHT31;67756;51.982;5.648;2024-03-02T06:35:11;9.4;64.1
78463;SHT31;67756;51.982;5.648;2024-03-02T06:37:40;9.4;63.9
78463;SHT31;67756;51.982;5.648;2024-03-02T06:40:09;9.3;63.6
78463;SHT31;67756;51.982;5.648;2024-03-02T06:42:38;9.3;64.0
78463;SHT31;67756;51.982;5.648;2024-03-02T06:45:07;9.3;64.1
78463;SHT31;67756;51.982;5.648;2024-03-02T06:47:36;9.2;64.4
78463;SHT31;67756;51.982;5.648;2024-03-02T06:50:05;9.2;64.6
78463;SHT31;67756;51.982;5.648;2024-03-02T06:52:36;9.2;64.3
78463;SHT31;67756;51.982;5.648;2024-03-02T06:55:05;9.2;63.7
78463;SHT31;67756;51.982;5.648;2024-03-02T06:57:34;9.1;63.8
78463;SHT31;67756;51.982;5.648;2024-03-02T07:00:03;9.1;64.1
78463;SHT31;67756;51.982;5.648;2024-03-02T07:02:35;9.1;64.3
78463;SHT31;67756;51.982;5.648;2024-03-02T07:05:04;9.1;64.7
78463;SHT31;67756;51.982;5.648;2024-03-02T07:07:34;9.1;64.7
78463;SHT31;67756;51.982;5.648;2024-03-02T07:10:03;9.0;64.6
78463;SHT31;67756;51.982;5.648;2024-03-02T07:12:33;9.0;64.8
78463;SHT31;67756;51.982;5.648;2024-03-02T07:15:02;9.0;64.9
78463;SHT31;67756;51.982;5.648;2024-03-02T07:17:44;9.0;64.9
78463;SHT31;67756;51.982;5.648;2024-03-02T07:20:13;9.1;65.1
78463;SHT31;67756;51.982;5.648;2024-03-02T07:22:42;9.1;65.0
78463;SHT31;67756;51.982;5.648;2024-03-02T07:25:11;9.1;65.1
78463;SHT31;67756;51.982;5.648;2024-03-02T07:27:40;9.1;64.9
78463;SHT31;67756;51.982;5.648;2024-03-02T07:30:13;9.1;64.9
78463;SHT31;67756;51.982;5.648;2024-03-02T07:32:42;9.2;65.4
78463;SHT31;67756;51.982;5.648;2024-03-02T07:35:12;9.2;65.6
78463;SHT31;67756;51.982;5.648;2024-03-02T07:37:43;9.3;64.9
78463;SHT31;67756;51.982;5.648;2024-03-02T07:40:12;9.3;65.1
78463;SHT31;67756;51.982;5.648;2024-03-02T07:42:41;9.4;65.5
78463;SHT31;67756;51.982;5.648;2024-03-02T07:45:10;9.4;65.1
78463;SHT31;67756;51.982;5.648;2024-03-02T07:47:40;9.5;64.9
78463;SHT31;67756;51.982;5.648;2024-03-02T07:50:09;9.6;64.9
78463;SHT31;67756;51.982;5.648;2024-03-02T07:52:38;9.6;64.8
78463;SHT31;67756;51.982;5.648;2024-03-02T07:55:07;9.7;64.5
78463;SHT31;67756;51.982;5.648;2024-03-02T07:57:36;9.8;64.7
78463;SHT31;67756;51.982;5.648;2024-03-02T08:00:06;9.8;64.3
78463;SHT31;67756;51.982;5.648;2024-03-02T08:02:36;9.9;63.8
78463;SHT31;67756;51.982;5.648;2024-03-02T08:05:05;9.9;62.9
78463;SHT31;67756;51.982;5.648;2024-03-02T08:07:34;9.9;62.9
78463;SHT31;67756;51.982;5.648;2024-03-02T08:10:03;10.0;62.7
78463;SHT31;67756;51.982;5.648;2024-03-02T08:12:32;10.0;62.5
78463;SHT31;67756;51.982;5.648;2024-03-02T08:15:00;10.0;63.3
78463;SHT31;67756;51.982;5.648;2024-03-02T08:17:29;10.1;63.1
78463;SHT31;67756;51.982;5.648;2024-03-02T08:19:58;10.2;61.8
78463;SHT31;67756;51.982;5.648;2024-03-02T08:22:27;10.3;61.0
78463;SHT31;67756;51.982;5.648;2024-03-02T08:24:58;10.3;61.4
78463;SHT31;67756;51.982;5.648;2024-03-02T08:27:27;10.3;61.2
78463;SHT31;67756;51.982;5.648;2024-03-02T08:29:55;10.3;60.2
78463;SHT31;67756;51.982;5.648;2024-03-02T08:32:24;10.4;59.8
78463;SHT31;67756;51.982;5.648;2024-03-02T08:34:52;10.4;59.6
78463;SHT31;67756;51.982;5.648;2024-03-02T08:37:21;10.3;59.5
78463;SHT31;67756;51.982;5.648;2024-03-02T08:39:50;10.3;59.5
78463;SHT31;67756;51.982;5.648;2024-03-02T08:42:18;10.3;59.8
78463;SHT31;67756;51.982;5.648;2024-03-02T08:44:47;10.3;60.0
78463;SHT31;67756;51.982;5.648;2024-03-02T08:47:16;10.3;59.7
78463;SHT31;67756;51.982;5.648;2024-03-02T08:49:45;10.2;59.4
78463;SHT31;67756;51.982;5.648;2024-03-02T08:52:14;10.2;60.1
78463;SHT31;67756;51.982;5.648;2024-03-02T08:54:43;10.2;59.3
78463;SHT31;67756;51.982;5.648;2024-03-02T08:57:11;10.2;60.0
78463;SHT31;67756;51.982;5.648;2024-03-02T08:59:40;10.2;59.8
78463;SHT31;67756;51.982;5.648;2024-03-02T09:02:10;10.2;59.2
78463;SHT31;67756;51.982;5.648;2024-03-02T09:04:39;10.2;58.7
78463;SHT31;67756;51.982;5.648;2024-03-02T09:07:08;10.2;58.6
78463;SHT31;67756;51.982;5.648;2024-03-02T09:09:37;10.2;58.5
78463;SHT31;67756;51.982;5.648;2024-03-02T09:12:07;10.2;58.7
78463;SHT31;67756;51.982;5.648;2024-03-02T09:14:37;10.2;58.6
78463;SHT31;67756;51.982;5.648;2024-03-02T09:17:06;10.3;58.7
78463;SHT31;67756;51.982;5.648;2024-03-02T09:19:37;10.3;58.3
78463;SHT31;67756;51.982;5.648;2024-03-02T09:22:06;10.4;58.2
78463;SHT31;67756;51.982;5.648;2024-03-02T09:24:36;10.4;59.1
78463;SHT31;67756;51.982;5.648;2024-03-02T09:27:04;10.4;58.0
78463;SHT31;67756;51.982;5.648;2024-03-02T09:29:33;10.5;57.7
78463;SHT31;67756;51.982;5.648;2024-03-02T09:32:03;10.5;57.7
78463;SHT31;67756;51.982;5.648;2024-03-02T09:34:32;10.6;57.3
78463;SHT31;67756;51.982;5.648;2024-03-02T09:37:01;10.7;57.5
78463;SHT31;67756;51.982;5.648;2024-03-02T09:39:30;10.7;57.5
78463;SHT31;67756;51.982;5.648;2024-03-02T09:41:59;10.8;56.7
78463;SHT31;67756;51.982;5.648;2024-03-02T09:44:29;10.9;56.5
78463;SHT31;67756;51.982;5.648;2024-03-02T09:46:59;10.9;56.5
78463;SHT31;67756;51.982;5.648;2024-03-02T09:49:28;11.0;55.8
78463;SHT31;67756;51.982;5.648;2024-03-02T09:51:57;11.0;55.7
78463;SHT31;67756;51.982;5.648;2024-03-02T09:54:26;11.1;56.4
78463;SHT31;67756;51.982;5.648;2024-03-02T09:56:57;11.1;56.0
78463;SHT31;67756;51.982;5.648;2024-03-02T09:59:28;11.1;56.0
78463;SHT31;67756;51.982;5.648;2024-03-02T10:01:57;11.2;56.7
78463;SHT31;67756;51.982;5.648;2024-03-02T10:04:28;11.2;56.0
78463;SHT31;67756;51.982;5.648;2024-03-02T10:07:11;11.3;57.6
78463;SHT31;67756;51.982;5.648;2024-03-02T10:09:41;11.4;56.7
78463;SHT31;67756;51.982;5.648;2024-03-02T10:12:11;11.5;57.2
78463;SHT31;67756;51.982;5.648;2024-03-02T10:14:41;11.6;56.7
78463;SHT31;67756;51.982;5.648;2024-03-02T10:17:11;11.8;55.5
78463;SHT31;67756;51.982;5.648;2024-03-02T10:19:41;12.1;52.9
78463;SHT31;67756;51.982;5.648;2024-03-02T10:22:10;12.3;52.2
78463;SHT31;67756;51.982;5.648;2024-03-02T10:24:41;12.4;52.4
78463;SHT31;67756;51.982;5.648;2024-03-02T10:27:23;12.6;51.2
78463;SHT31;67756;51.982;5.648;2024-03-02T10:29:51;12.7;50.3
78463;SHT31;67756;51.982;5.648;2024-03-02T10:32:22;12.8;49.3
78463;SHT31;67756;51.982;5.648;2024-03-02T10:34:52;13.0;49.1
78463;SHT31;67756;51.982;5.648;2024-03-02T10:37:21;13.1;50.0
78463;SHT31;67756;51.982;5.648;2024-03-02T10:39:52;13.4;48.8
78463;SHT31;67756;51.982;5.648;2024-03-02T10:42:22;13.5;48.1
78463;SHT31;67756;51.982;5.648;2024-03-02T10:44:52;13.7;46.9
78463;SHT31;67756;51.982;5.648;2024-03-02T10:47:23;13.9;46.6
78463;SHT31;67756;51.982;5.648;2024-03-02T10:49:54;14.1;46.6
78463;SHT31;67756;51.982;5.648;2024-03-02T10:52:25;14.1;45.1
78463;SHT31;67756;51.982;5.648;2024-03-02T10:54:54;14.2;44.5
78463;SHT31;67756;51.982;5.648;2024-03-02T10:57:28;14.2;44.8
78463;SHT31;67756;51.982;5.648;2024-03-02T11:00:02;14.2;44.8
78463;SHT31;67756;51.982;5.648;2024-03-02T11:02:34;14.2;44.4
78463;SHT31;67756;51.982;5.648;2024-03-02T11:05:06;14.1;45.3
78463;SHT31;67756;51.982;5.648;2024-03-02T11:07:37;14.0;45.4
78463;SHT31;67756;51.982;5.648;2024-03-02T11:10:08;14.0;46.2
78463;SHT31;67756;51.982;5.648;2024-03-02T11:12:47;13.9;45.5
78463;SHT31;67756;51.982;5.648;2024-03-02T11:15:18;13.9;46.5
78463;SHT31;67756;51.982;5.648;2024-03-02T11:17:48;13.9;46.8
78463;SHT31;67756;51.982;5.648;2024-03-02T11:20:18;13.9;47.0
78463;SHT31;67756;51.982;5.648;2024-03-02T11:22:48;14.0;47.5
78463;SHT31;67756;51.982;5.648;2024-03-02T11:25:27;14.2;46.8
78463;SHT31;67756;51.982;5.648;2024-03-02T11:28:03;14.5;46.3
78463;SHT31;67756;51.982;5.648;2024-03-02T11:30:51;14.9;44.8
78463;SHT31;67756;51.982;5.648;2024-03-02T11:33:27;15.2;43.5
78463;SHT31;67756;51.982;5.648;2024-03-02T11:35:58;15.4;42.7
78463;SHT31;67756;51.982;5.648;2024-03-02T11:38:34;15.6;43.0
78463;SHT31;67756;51.982;5.648;2024-03-02T11:41:06;15.8;42.9
78463;SHT31;67756;51.982;5.648;2024-03-02T11:43:37;15.9;42.5
78463;SHT31;67756;51.982;5.648;2024-03-02T11:46:06;16.1;41.2
78463;SHT31;67756;51.982;5.648;2024-03-02T11:48:37;16.3;40.5
78463;SHT31;67756;51.982;5.648;2024-03-02T11:51:06;16.4;39.2
78463;SHT31;67756;51.982;5.648;2024-03-02T11:53:35;16.5;39.0
78463;SHT31;67756;51.982;5.648;2024-03-02T11:56:09;16.5;38.0
78463;SHT31;67756;51.982;5.648;2024-03-02T11:58:40;16.5;38.4
78463;SHT31;67756;51.982;5.648;2024-03-02T12:01:12;16.5;37.9
78463;SHT31;67756;51.982;5.648;2024-03-02T12:03:43;16.5;38.1
78463;SHT31;67756;51.982;5.648;2024-03-02T12:06:12;16.6;38.7
78463;SHT31;67756;51.982;5.648;2024-03-02T12:08:41;16.7;37.7
78463;SHT31;67756;51.982;5.648;2024-03-02T12:11:13;16.8;37.5
78463;SHT31;67756;51.982;5.648;2024-03-02T12:13:55;16.9;37.6
78463;SHT31;67756;51.982;5.648;2024-03-02T12:16:26;16.9;37.9
78463;SHT31;67756;51.982;5.648;2024-03-02T12:18:55;16.9;37.7
78463;SHT31;67756;51.982;5.648;2024-03-02T12:21:23;16.9;38.3
78463;SHT31;67756;51.982;5.648;2024-03-02T12:23:53;16.9;38.4
78463;SHT31;67756;51.982;5.648;2024-03-02T12:26:22;16.9;39.1
78463;SHT31;67756;51.982;5.648;2024-03-02T12:28:51;17.1;38.7
78463;SHT31;67756;51.982;5.648;2024-03-02T12:31:20;17.2;38.2
78463;SHT31;67756;51.982;5.648;2024-03-02T12:33:49;17.4;38.2
78463;SHT31;67756;51.982;5.648;2024-03-02T12:36:19;17.5;38.6
78463;SHT31;67756;51.982;5.648;2024-03-02T12:38:47;17.6;38.2
78463;SHT31;67756;51.982;5.648;2024-03-02T12:41:17;17.8;38.0
78463;SHT31;67756;51.982;5.648;2024-03-02T12:43:45;17.9;38.2
78463;SHT31;67756;51.982;5.648;2024-03-02T12:46:14;18.0;37.3
78463;SHT31;67756;51.982;5.648;2024-03-02T12:48:43;18.1;36.8
78463;SHT31;67756;51.982;5.648;2024-03-02T12:51:12;18.1;36.8
78463;SHT31;67756;51.982;5.648;2024-03-02T12:53:43;18.1;37.3
78463;SHT31;67756;51.982;5.648;2024-03-02T12:56:11;18.0;37.6
78463;SHT31;67756;51.982;5.648;2024-03-02T12:58:40;18.0;37.7
78463;SHT31;67756;51.982;5.648;2024-03-02T13:01:10;18.0;37.5
78463;SHT31;67756;51.982;5.648;2024-03-02T13:03:43;18.1;37.3
78463;SHT31;67756;51.982;5.648;2024-03-02T13:06:14;18.2;37.6
78463;SHT31;67756;51.982;5.648;2024-03-02T13:08:43;18.3;38.3
78463;SHT31;67756;51.982;5.648;2024-03-02T13:11:13;18.5;36.6
78463;SHT31;67756;51.982;5.648;2024-03-02T13:13:42;18.7;35.7
78463;SHT31;67756;51.982;5.648;2024-03-02T13:16:12;18.9;35.8
78463;SHT31;67756;51.982;5.648;2024-03-02T13:18:45;19.0;35.2
78463;SHT31;67756;51.982;5.648;2024-03-02T13:21:19;19.3;36.0
78463;SHT31;67756;51.982;5.648;2024-03-02T13:23:47;19.7;35.0
78463;SHT31;67756;51.982;5.648;2024-03-02T13:26:16;20.1;33.7
78463;SHT31;67756;51.982;5.648;2024-03-02T13:28:45;20.3;33.8
78463;SHT31;67756;51.982;5.648;2024-03-02T13:31:13;20.4;33.9
78463;SHT31;67756;51.982;5.648;2024-03-02T13:33:42;20.5;33.0
78463;SHT31;67756;51.982;5.648;2024-03-02T13:36:10;20.7;32.8
78463;SHT31;67756;51.982;5.648;2024-03-02T13:38:41;20.8;32.6
78463;SHT31;67756;51.982;5.648;2024-03-02T13:41:12;20.9;33.3
78463;SHT31;67756;51.982;5.648;2024-03-02T13:43:41;21.0;33.3
78463;SHT31;67756;51.982;5.648;2024-03-02T13:46:11;21.2;33.5
78463;SHT31;67756;51.982;5.648;2024-03-02T13:48:40;21.4;32.4
78463;SHT31;67756;51.982;5.648;2024-03-02T13:51:08;21.5;32.1
78463;SHT31;67756;51.982;5.648;2024-03-02T13:53:37;21.6;31.7
78463;SHT31;67756;51.982;5.648;2024-03-02T13:56:09;21.7;31.6
78463;SHT31;67756;51.982;5.648;2024-03-02T13:58:38;21.7;30.5
78463;SHT31;67756;51.982;5.648;2024-03-02T14:01:07;21.7;30.9
78463;SHT31;67756;51.982;5.648;2024-03-02T14:03:35;21.6;32.0
78463;SHT31;67756;51.982;5.648;2024-03-02T14:06:04;21.5;30.4
78463;SHT31;67756;51.982;5.648;2024-03-02T14:08:33;21.4;30.7
78463;SHT31;67756;51.982;5.648;2024-03-02T14:11:02;21.2;31.5
78463;SHT31;67756;51.982;5.648;2024-03-02T14:13:31;21.0;33.3
78463;SHT31;67756;51.982;5.648;2024-03-02T14:15:59;20.9;33.3
78463;SHT31;67756;51.982;5.648;2024-03-02T14:18:28;20.8;32.9
78463;SHT31;67756;51.982;5.648;2024-03-02T14:20:56;20.8;32.8
78463;SHT31;67756;51.982;5.648;2024-03-02T14:23:25;20.8;32.8
78463;SHT31;67756;51.982;5.648;2024-03-02T14:25:55;20.7;33.3
78463;SHT31;67756;51.982;5.648;2024-03-02T14:28:25;20.7;32.2
78463;SHT31;67756;51.982;5.648;2024-03-02T14:30:54;20.5;32.3
78463;SHT31;67756;51.982;5.648;2024-03-02T14:33:23;20.3;33.0
78463;SHT31;67756;51.982;5.648;2024-03-02T14:35:53;20.1;32.7
78463;SHT31;67756;51.982;5.648;2024-03-02T14:38:22;20.0;32.9
78463;SHT31;67756;51.982;5.648;2024-03-02T14:40:51;19.8;34.1
78463;SHT31;67756;51.982;5.648;2024-03-02T14:43:19;19.7;34.5
78463;SHT31;67756;51.982;5.648;2024-03-02T14:45:49;19.7;34.8
78463;SHT31;67756;51.982;5.648;2024-03-02T14:48:18;19.6;34.7
78463;SHT31;67756;51.982;5.648;2024-03-02T14:50:47;19.4;35.8
78463;SHT31;67756;51.982;5.648;2024-03-02T14:53:18;19.4;35.3
78463;SHT31;67756;51.982;5.648;2024-03-02T14:55:49;19.3;35.5
78463;SHT31;67756;51.982;5.648;2024-03-02T14:58:18;19.3;35.6
78463;SHT31;67756;51.982;5.648;2024-03-02T15:00:47;19.2;35.6
78463;SHT31;67756;51.982;5.648;2024-03-02T15:03:17;19.2;35.5
78463;SHT31;67756;51.982;5.648;2024-03-02T15:05:48;19.1;36.5
78463;SHT31;67756;51.982;5.648;2024-03-02T15:08:19;19.0;36.2
78463;SHT31;67756;51.982;5.648;2024-03-02T15:10:47;18.9;36.0
78463;SHT31;67756;51.982;5.648;2024-03-02T15:13:17;18.8;35.8
78463;SHT31;67756;51.982;5.648;2024-03-02T15:15:45;18.7;36.1
78463;SHT31;67756;51.982;5.648;2024-03-02T15:18:14;18.6;36.2
78463;SHT31;67756;51.982;5.648;2024-03-02T15:20:43;18.4;36.6
78463;SHT31;67756;51.982;5.648;2024-03-02T15:23:11;18.1;37.3
78463;SHT31;67756;51.982;5.648;2024-03-02T15:25:41;18.0;37.9
78463;SHT31;67756;51.982;5.648;2024-03-02T15:28:11;17.8;38.5
78463;SHT31;67756;51.982;5.648;2024-03-02T15:30:40;17.5;39.5
78463;SHT31;67756;51.982;5.648;2024-03-02T15:33:09;17.4;40.1
78463;SHT31;67756;51.982;5.648;2024-03-02T15:35:37;17.3;40.7
78463;SHT31;67756;51.982;5.648;2024-03-02T15:38:06;17.1;41.4
78463;SHT31;67756;51.982;5.648;2024-03-02T15:40:38;17.1;41.7
78463;SHT31;67756;51.982;5.648;2024-03-02T15:43:08;17.0;41.6
78463;SHT31;67756;51.982;5.648;2024-03-02T15:45:42;17.0;41.3
78463;SHT31;67756;51.982;5.648;2024-03-02T15:48:10;17.0;42.0
78463;SHT31;67756;51.982;5.648;2024-03-02T15:50:39;17.0;42.2
78463;SHT31;67756;51.982;5.648;2024-03-02T15:53:08;16.9;42.4
78463;SHT31;67756;51.982;5.648;2024-03-02T15:55:38;16.9;42.8
78463;SHT31;67756;51.982;5.648;2024-03-02T15:58:07;16.9;42.7
78463;SHT31;67756;51.982;5.648;2024-03-02T16:00:35;16.9;43.2
78463;SHT31;67756;51.982;5.648;2024-03-02T16:03:04;16.9;43.7
78463;SHT31;67756;51.982;5.648;2024-03-02T16:05:33;16.8;44.0
78463;SHT31;67756;51.982;5.648;2024-03-02T16:08:02;16.8;44.0
78463;SHT31;67756;51.982;5.648;2024-03-02T16:10:31;16.7;44.4
78463;SHT31;67756;51.982;5.648;2024-03-02T16:13:00;16.7;45.1
78463;SHT31;67756;51.982;5.648;2024-03-02T16:15:31;16.7;44.4
78463;SHT31;67756;51.982;5.648;2024-03-02T16:18:00;16.7;44.4
78463;SHT31;67756;51.982;5.648;2024-03-02T16:20:29;16.6;44.2
78463;SHT31;67756;51.982;5.648;2024-03-02T16:22:57;16.5;44.8